No1 Tokuyama — JK5318 — position and weather

sailwx.info

Track history (hours):
 
Tides and Currents Weather Stations Pressure Air Temp Water Temp Dewpoint Dewpoint Depression Visibility Wind Speed Wind Dir Waves Ship Positions

No1 Tokuyama

Last reported at 2016-Sep-27 00:34 UTC. Time now 2016-Sep-27 03:37 UTC.
Position N 34°37' E 135°01'.

Length 110 m; draft 5.4 m.

Type: Cargo ship. MMSI: 431400487.

Date/timePositionNaut miles runAvg speedWind from/ knotsBaromVisibWave heightAir tempDewpointWater temp
2016-Sep-27 00:34N 34°37' E 135°01'  
2016-Sep-24 10:33N 35°01' E 139°32'1414.2
2016-Sep-24 09:34N 35°11' E 139°45'19 3.2
2016-Sep-24 03:31N 35°30' E 139°44'0 0.0
2016-Sep-24 02:31N 35°30' E 139°44'0 0.0
2016-Sep-24 01:31N 35°30' E 139°44'0 0.0
2016-Sep-24 00:31N 35°30' E 139°44'10 2.0
2016-Sep-23 19:32N 35°22' E 139°51'0 0.0
2016-Sep-23 17:29N 35°22' E 139°51'0 0.0
2016-Sep-23 16:32N 35°22' E 139°51'0 0.0
2016-Sep-23 15:32N 35°22' E 139°51'0 0.0
2016-Sep-23 13:32N 35°22' E 139°51'0 0.0
2016-Sep-23 09:32N 35°22' E 139°51'0 0.0
2016-Sep-23 06:32N 35°22' E 139°51'0 0.0
2016-Sep-23 04:32N 35°22' E 139°51'0 0.0
2016-Sep-23 03:32N 35°22' E 139°51'0 0.1
2016-Sep-23 02:30N 35°22' E 139°50'1 1.1
2016-Sep-23 01:31N 35°22' E 139°49'0 0.0
2016-Sep-23 00:31N 35°22' E 139°49'0 0.0
2016-Sep-22 23:31N 35°22' E 139°49'0 0.0
2016-Sep-22 20:31N 35°22' E 139°49'0 0.0
2016-Sep-22 12:28N 35°22' E 139°49'8 0.9
2016-Sep-22 04:31N 35°26' E 139°41'0 0.0
2016-Sep-22 03:31N 35°26' E 139°41'2 0.6
2016-Sep-22 00:34N 35°24' E 139°42'1110.8
2016-Sep-21 23:33N 35°14' E 139°47'1211.4
2016-Sep-21 22:30N 35°03' E 139°40'218 7.5
2016-Sep-20 17:31N 34°31' E 135°17'0 0.0
2016-Sep-20 14:25N 34°31' E 135°17'0 0.0
2016-Sep-20 13:31N 34°31' E 135°17'0 0.0
2016-Sep-20 10:31N 34°31' E 135°17'0 0.0
2016-Sep-20 08:25N 34°31' E 135°17'0 0.0
2016-Sep-20 07:19N 34°31' E 135°17'0 0.0
2016-Sep-20 06:31N 34°31' E 135°17'0 0.0
2016-Sep-20 02:25N 34°31' E 135°17'0 0.0
2016-Sep-19 23:25N 34°31' E 135°17'0 0.0
2016-Sep-19 19:31N 34°31' E 135°17'0 0.0
2016-Sep-19 18:31N 34°31' E 135°17'8 4.0
2016-Sep-19 16:30N 34°33' E 135°07'  
Track history (hours):
 
Tides and Currents Weather Stations Pressure Air Temp Water Temp Dewpoint Dewpoint Depression Visibility Wind Speed Wind Dir Waves Ship Positions

No1 Tokuyama

Last reported at 2016-Sep-27 00:34 UTC. Time now 2016-Sep-27 03:37 UTC.
Position N 34°37' E 135°01'.

Length 110 m; draft 5.4 m.

Type: Cargo ship. MMSI: 431400487.

Date/timePositionNaut miles runAvg speedWind from/ knotsBaromVisibWave heightAir tempDewpointWater temp
2016-Sep-27 00:34N 34°37' E 135°01'  
2016-Sep-24 10:33N 35°01' E 139°32'1414.2
2016-Sep-24 09:34N 35°11' E 139°45'19 3.2
2016-Sep-24 03:31N 35°30' E 139°44'0 0.0
2016-Sep-24 02:31N 35°30' E 139°44'0 0.0
2016-Sep-24 01:31N 35°30' E 139°44'0 0.0
2016-Sep-24 00:31N 35°30' E 139°44'10 2.0
2016-Sep-23 19:32N 35°22' E 139°51'0 0.0
2016-Sep-23 17:29N 35°22' E 139°51'0 0.0
2016-Sep-23 16:32N 35°22' E 139°51'0 0.0
2016-Sep-23 15:32N 35°22' E 139°51'0 0.0
2016-Sep-23 13:32N 35°22' E 139°51'0 0.0
2016-Sep-23 09:32N 35°22' E 139°51'0 0.0
2016-Sep-23 06:32N 35°22' E 139°51'0 0.0
2016-Sep-23 04:32N 35°22' E 139°51'0 0.0
2016-Sep-23 03:32N 35°22' E 139°51'0 0.1
2016-Sep-23 02:30N 35°22' E 139°50'1 1.1
2016-Sep-23 01:31N 35°22' E 139°49'0 0.0
2016-Sep-23 00:31N 35°22' E 139°49'0 0.0
2016-Sep-22 23:31N 35°22' E 139°49'0 0.0
2016-Sep-22 20:31N 35°22' E 139°49'0 0.0
2016-Sep-22 12:28N 35°22' E 139°49'8 0.9
2016-Sep-22 04:31N 35°26' E 139°41'0 0.0
2016-Sep-22 03:31N 35°26' E 139°41'2 0.6
2016-Sep-22 00:34N 35°24' E 139°42'1110.8
2016-Sep-21 23:33N 35°14' E 139°47'1211.4
2016-Sep-21 22:30N 35°03' E 139°40'218 7.5
2016-Sep-20 17:31N 34°31' E 135°17'0 0.0
2016-Sep-20 14:25N 34°31' E 135°17'0 0.0
2016-Sep-20 13:31N 34°31' E 135°17'0 0.0
2016-Sep-20 10:31N 34°31' E 135°17'0 0.0
2016-Sep-20 08:25N 34°31' E 135°17'0 0.0
2016-Sep-20 07:19N 34°31' E 135°17'0 0.0
2016-Sep-20 06:31N 34°31' E 135°17'0 0.0
2016-Sep-20 02:25N 34°31' E 135°17'0 0.0
2016-Sep-19 23:25N 34°31' E 135°17'0 0.0
2016-Sep-19 19:31N 34°31' E 135°17'0 0.0
2016-Sep-19 18:31N 34°31' E 135°17'8 4.0
2016-Sep-19 16:30N 34°33' E 135°07'  

Dump ship's entire track history